Time;durP1;ratioP1;P1;durP2;ratioP2;P2;SDS_P1;SDS_P2;PMS_P1;PMS_P2;Temp;Humidity;BMP_temperature;BMP_pressure;BME280_temperature;BME280_humidity;BME280_pressure;Samples;Min_cycle;Max_cycle;Signal;HPM_P1;HPM_P2
2022/05/05 00:08:51;;;;;;;5.10;3.50;;;;;;;13.46;73.53;100174.97;31367561;28;20048;-73
2022/05/05 00:23:53;;;;;;;8.40;3.20;;;;;;;13.15;70.77;100170.03;31327111;28;20041;-72
2022/05/05 00:38:55;;;;;;;4.63;3.03;;;;;;;12.81;66.61;100200.53;31348758;28;20049;-73
2022/05/05 00:53:57;;;;;;;4.17;2.20;;;;;;;12.34;60.20;100213.81;31254284;28;20046;-72
2022/05/05 01:08:59;;;;;;;3.13;1.27;;;;;;;11.77;55.95;100220.66;31225259;28;20076;-73
2022/05/05 01:24:01;;;;;;;2.60;1.40;;;;;;;11.38;54.52;100217.97;31234218;28;20057;-71
2022/05/05 01:39:03;;;;;;;3.83;1.50;;;;;;;11.05;53.45;100245.03;31237611;28;20050;-72
2022/05/05 01:54:05;;;;;;;5.07;1.40;;;;;;;10.85;52.87;100260.56;31318154;28;20045;-72
2022/05/05 02:09:08;;;;;;;3.40;1.53;;;;;;;10.71;51.57;100274.38;31351220;28;20076;-73
2022/05/05 02:24:10;;;;;;;2.73;1.50;;;;;;;10.55;52.31;100299.47;31379728;28;20051;-72
2022/05/05 02:39:12;;;;;;;3.90;1.50;;;;;;;10.38;52.76;100312.16;31384708;28;20480;-73
2022/05/05 03:09:34;;;;;;;17.27;2.70;;;;;;;10.50;54.34;100367.78;31377227;28;20052;-74
2022/05/05 03:24:36;;;;;;;4.30;1.60;;;;;;;10.72;54.75;100379.09;31368137;28;20037;-72
2022/05/05 03:39:38;;;;;;;5.20;1.53;;;;;;;10.89;54.58;100399.75;31381295;28;20067;-73
2022/05/05 03:54:41;;;;;;;5.83;1.30;;;;;;;11.08;54.84;100407.22;31393095;28;20060;-72
2022/05/05 04:09:43;;;;;;;2.83;1.40;;;;;;;11.61;54.04;100435.38;31400549;28;20512;-73
2022/05/05 04:24:45;;;;;;;1.80;1.20;;;;;;;11.76;53.75;100439.41;31349953;28;20041;-72
2022/05/05 04:39:47;;;;;;;2.10;1.60;;;;;;;12.06;54.36;100456.69;31358021;28;20120;-73
2022/05/05 04:54:49;;;;;;;6.33;2.00;;;;;;;12.70;53.50;100466.22;31320884;28;20413;-71
2022/05/05 05:09:51;;;;;;;6.20;1.60;;;;;;;12.87;52.89;100481.41;31353070;28;20057;-73
2022/05/05 05:24:56;;;;;;;4.93;1.70;;;;;;;12.97;53.46;100496.75;31333890;28;20061;-72
2022/05/05 05:39:58;;;;;;;5.80;1.77;;;;;;;14.00;51.46;100503.09;31347645;28;20056;-73
2022/05/05 05:55:02;;;;;;;3.27;1.70;;;;;;;14.47;49.60;100513.53;31366764;28;20055;-73
2022/05/05 06:10:05;;;;;;;9.30;2.00;;;;;;;15.16;49.67;100519.22;31384227;28;20083;-72
2022/05/05 06:25:07;;;;;;;4.13;1.50;;;;;;;15.60;47.86;100524.84;31399593;28;20053;-73
2022/05/05 06:40:09;;;;;;;5.40;2.47;;;;;;;16.06;47.34;100538.94;31386476;28;20041;-73
2022/05/05 06:55:12;;;;;;;6.90;3.10;;;;;;;16.07;46.40;100565.88;31400305;28;20060;-72
2022/05/05 07:25:37;;;;;;;4.22;2.38;;;;;;;16.99;43.64;100589.19;31359710;28;20055;-75
2022/05/05 07:40:39;;;;;;;10.45;2.83;;;;;;;17.66;41.93;100591.25;31351462;28;20047;-73
2022/05/05 07:55:41;;;;;;;5.57;2.63;;;;;;;18.14;40.14;100595.09;31346630;28;20052;-72
2022/05/05 08:11:03;;;;;;;6.72;2.42;;;;;;;18.58;37.40;100598.25;31385937;28;20048;-81
2022/05/05 08:41:26;;;;;;;5.43;2.30;;;;;;;19.35;36.57;100609.66;31352076;28;20099;-72
2022/05/05 08:56:28;;;;;;;4.57;2.92;;;;;;;19.69;34.32;100604.88;31355702;28;20061;-75
2022/05/05 09:11:30;;;;;;;13.40;2.97;;;;;;;19.99;33.96;100623.06;31366775;28;20468;-78
2022/05/05 09:26:32;;;;;;;10.65;3.50;;;;;;;20.55;32.73;100635.16;31351584;28;20045;-70
2022/05/05 09:41:43;;;;;;;7.72;2.45;;;;;;;20.67;32.36;100658.97;31354335;28;20057;-72
2022/05/05 10:12:12;;;;;;;8.30;2.08;;;;;;;21.85;28.63;100663.56;31299346;28;20486;-71
2022/05/05 10:27:16;;;;;;;4.32;1.85;;;;;;;21.68;27.83;100655.06;31333941;28;20053;-71
2022/05/05 10:42:33;;;;;;;5.57;1.85;;;;;;;22.43;27.34;100663.31;31373438;28;20053;-71
2022/05/05 10:57:41;;;;;;;5.03;2.25;;;;;;;22.85;26.06;100672.28;31371000;28;20045;-71
2022/05/05 11:12:51;;;;;;;9.75;1.77;;;;;;;23.43;24.78;100680.03;31346843;28;20053;-73
2022/05/05 11:27:57;;;;;;;5.88;1.58;;;;;;;21.02;26.89;100680.38;31385629;28;20067;-80
2022/05/05 12:13:50;;;;;;;3.72;1.27;;;;;;;19.15;29.67;100694.72;31400238;28;20405;-70
2022/05/05 12:28:52;;;;;;;3.28;1.08;;;;;;;18.43;29.38;100696.31;31386280;28;20134;-71
2022/05/05 12:44:05;;;;;;;2.63;1.30;;;;;;;18.27;30.50;100710.34;31371269;28;20251;-74
2022/05/05 13:14:27;;;;;;;5.03;1.13;;;;;;;17.72;29.50;100710.22;31354256;28;20053;-74
2022/05/05 13:29:29;;;;;;;2.90;0.90;;;;;;;17.67;29.23;100716.31;31354493;28;20049;-79
2022/05/05 13:44:31;;;;;;;3.40;1.30;;;;;;;17.49;29.45;100727.16;31339626;28;20421;-80
2022/05/05 13:59:33;;;;;;;4.93;1.10;;;;;;;17.21;29.59;100738.03;31349277;28;20669;-76
2022/05/05 14:14:55;;;;;;;4.38;1.33;;;;;;;17.01;29.07;100754.03;31353638;28;20567;-71
2022/05/05 14:29:57;;;;;;;2.85;1.33;;;;;;;16.82;28.67;100749.63;31365458;28;20461;-72
2022/05/05 14:44:59;;;;;;;2.37;1.10;;;;;;;16.75;29.20;100755.38;31362811;28;20091;-85
2022/05/05 15:00:01;;;;;;;4.40;2.17;;;;;;;16.53;28.83;100766.28;31408769;28;20063;-74
2022/05/05 15:15:04;;;;;;;1.88;1.05;;;;;;;16.43;28.68;100762.66;31363117;28;20131;-75
2022/05/05 15:30:07;;;;;;;3.65;1.90;;;;;;;16.22;28.99;100774.31;31330656;28;20056;-77
2022/05/05 15:45:11;;;;;;;3.22;1.50;;;;;;;16.01;27.93;100790.22;31359126;28;20059;-79
2022/05/05 16:00:15;;;;;;;8.90;2.77;;;;;;;15.87;28.40;100798.88;31377973;28;20084;-75
2022/05/05 16:15:17;;;;;;;8.57;5.10;;;;;;;15.65;29.53;100825.34;31384126;28;20140;-84
2022/05/05 16:30:21;;;;;;;10.37;5.00;;;;;;;15.41;30.54;100837.72;31378378;28;20155;-77
2022/05/05 16:45:27;;;;;;;12.40;7.30;;;;;;;15.05;31.31;100855.13;31384476;28;20057;-75
2022/05/05 17:00:30;;;;;;;9.70;6.40;;;;;;;14.70;32.77;100880.59;31424052;28;20040;-84
2022/05/05 17:15:38;;;;;;;10.10;5.50;;;;;;;14.38;33.45;100906.69;31396181;28;20066;-80
2022/05/05 17:30:41;;;;;;;12.93;7.20;;;;;;;14.12;34.01;100938.47;31371501;28;20045;-72
2022/05/05 18:01:03;;;;;;;22.10;13.87;;;;;;;13.67;35.23;100973.66;31369909;28;20052;-75
2022/05/05 18:16:06;;;;;;;61.00;28.93;;;;;;;13.35;35.84;100993.31;31411305;28;20037;-76
2022/05/05 18:31:09;;;;;;;36.10;18.03;;;;;;;13.04;37.01;101013.63;31380783;28;20049;-72
2022/05/05 18:46:16;;;;;;;38.27;19.67;;;;;;;12.78;37.67;101034.25;31340508;28;20513;-75
2022/05/05 19:01:21;;;;;;;42.03;19.47;;;;;;;12.53;38.65;101045.47;31378180;28;20149;-76
2022/05/05 19:16:23;;;;;;;40.93;21.97;;;;;;;12.32;39.10;101041.06;31361349;28;20269;-73
2022/05/05 19:31:25;;;;;;;40.23;18.20;;;;;;;12.18;39.24;101042.03;31359527;28;20053;-73
2022/05/05 19:46:27;;;;;;;54.33;20.63;;;;;;;12.00;40.23;101046.13;31343767;28;20091;-73
2022/05/05 20:01:29;;;;;;;28.23;16.00;;;;;;;11.74;41.24;101053.72;31336660;28;20139;-74
2022/05/05 20:16:33;;;;;;;34.93;17.53;;;;;;;11.56;41.21;101070.22;31339868;28;20052;-74
2022/05/05 20:31:36;;;;;;;29.90;16.00;;;;;;;11.43;41.84;101073.78;31337831;28;20067;-73
2022/05/05 20:46:38;;;;;;;30.57;16.27;;;;;;;11.23;42.14;101090.63;31340775;28;20660;-73
2022/05/05 21:01:40;;;;;;;31.90;16.23;;;;;;;10.86;42.89;101095.91;31361001;28;20041;-72
2022/05/05 21:16:42;;;;;;;29.53;14.97;;;;;;;10.71;43.52;101106.06;31336025;28;20138;-72
2022/05/05 21:31:44;;;;;;;32.83;16.73;;;;;;;10.62;43.98;101113.88;31372545;28;20533;-74
2022/05/05 21:46:46;;;;;;;42.30;19.80;;;;;;;10.42;43.74;101131.75;31352420;28;20057;-73
2022/05/05 22:01:48;;;;;;;37.20;17.40;;;;;;;10.26;42.87;101129.47;31320443;28;20051;-73
2022/05/05 22:16:50;;;;;;;44.37;19.47;;;;;;;10.05;42.96;101119.41;31355782;28;21528;-73
2022/05/05 22:31:52;;;;;;;28.57;16.53;;;;;;;9.90;42.55;101132.22;31358244;28;20067;-74
2022/05/05 22:46:55;;;;;;;32.40;16.43;;;;;;;9.75;42.80;101138.00;31313586;28;20564;-80
2022/05/05 23:01:57;;;;;;;30.10;15.57;;;;;;;9.67;43.34;101142.66;31258972;28;20110;-78
2022/05/05 23:16:59;;;;;;;37.93;15.93;;;;;;;9.56;43.77;101150.00;31262742;28;20115;-80
2022/05/05 23:32:02;;;;;;;35.40;15.60;;;;;;;9.56;43.01;101147.28;31256112;28;20136;-79
2022/05/05 23:47:04;;;;;;;31.23;15.50;;;;;;;9.37;44.62;101150.38;31295646;28;20084;-79
